Time;durP1;ratioP1;P1;durP2;ratioP2;P2;SDS_P1;SDS_P2;PMS_P1;PMS_P2;Temp;Humidity;BMP_temperature;BMP_pressure;BME280_temperature;BME280_humidity;BME280_pressure;Samples;Min_cycle;Max_cycle;Signal;HPM_P1;HPM_P2
2023/12/26 00:00:17;;;;;;;1.00;1.00;;;10.30;99.90;;;;;;6300666;22;20022;-75
2023/12/26 00:02:43;;;;;;;2.42;1.13;;;10.30;99.90;;;;;;6300420;22;20098;-77
2023/12/26 00:05:09;;;;;;;1.25;1.08;;;10.20;99.90;;;;;;6302234;22;20061;-77
2023/12/26 00:07:34;;;;;;;2.50;1.23;;;10.20;99.90;;;;;;6300414;22;20090;-76
2023/12/26 00:10:00;;;;;;;1.15;1.13;;;10.20;99.90;;;;;;6300773;22;20026;-76
2023/12/26 00:12:26;;;;;;;1.30;1.20;;;10.30;99.90;;;;;;6300513;22;20022;-76
2023/12/26 00:14:52;;;;;;;1.00;1.00;;;10.30;99.90;;;;;;6300220;22;20072;-76
2023/12/26 00:17:18;;;;;;;1.33;1.23;;;10.30;99.90;;;;;;6300702;22;20105;-75
2023/12/26 00:19:45;;;;;;;1.02;0.98;;;10.30;99.90;;;;;;6300518;22;20483;-75
2023/12/26 00:22:12;;;;;;;1.02;0.95;;;10.40;99.90;;;;;;6300523;22;20022;-73
2023/12/26 00:24:38;;;;;;;2.08;1.20;;;10.30;99.90;;;;;;6300084;22;20015;-72
2023/12/26 00:27:03;;;;;;;1.67;1.10;;;10.30;99.90;;;;;;6300160;22;20285;-72
2023/12/26 00:29:29;;;;;;;1.27;1.17;;;10.30;99.90;;;;;;6300085;22;20015;-73
2023/12/26 00:31:55;;;;;;;2.70;1.23;;;10.30;99.90;;;;;;6300285;22;20348;-72
2023/12/26 00:34:21;;;;;;;1.20;1.10;;;10.40;99.90;;;;;;6300314;22;20487;-73
2023/12/26 00:36:46;;;;;;;2.85;1.13;;;10.40;99.90;;;;;;6274747;22;20015;-72
2023/12/26 00:39:14;;;;;;;1.02;0.90;;;10.30;99.90;;;;;;6299902;22;20342;-72
2023/12/26 00:41:40;;;;;;;1.20;0.90;;;10.30;99.90;;;;;;6299750;22;20181;-72
2023/12/26 00:44:05;;;;;;;1.05;1.05;;;10.40;99.90;;;;;;6274234;22;20034;-72
2023/12/26 00:46:32;;;;;;;1.02;1.02;;;10.30;99.90;;;;;;6300240;22;20023;-72
2023/12/26 00:48:58;;;;;;;1.13;1.13;;;10.30;99.90;;;;;;6300602;22;20027;-73
2023/12/26 00:51:24;;;;;;;0.75;0.75;;;10.30;99.90;;;;;;6300471;22;20038;-71
2023/12/26 00:53:50;;;;;;;0.80;0.80;;;10.30;99.90;;;;;;6300121;22;20015;-72
2023/12/26 00:56:15;;;;;;;1.23;1.08;;;10.30;99.90;;;;;;6300073;22;20289;-72
2023/12/26 00:58:41;;;;;;;0.90;0.90;;;10.30;99.90;;;;;;6301250;22;20090;-71
2023/12/26 01:01:07;;;;;;;1.02;0.98;;;10.40;99.90;;;;;;6302147;22;20047;-72
2023/12/26 01:03:33;;;;;;;1.42;1.10;;;10.40;99.90;;;;;;6302013;22;20456;-72
2023/12/26 01:05:59;;;;;;;0.70;0.70;;;10.40;99.90;;;;;;6301750;22;20011;-72
2023/12/26 01:08:24;;;;;;;0.80;0.80;;;10.30;99.90;;;;;;6301609;22;20121;-73
2023/12/26 01:10:51;;;;;;;0.80;0.80;;;10.40;99.90;;;;;;6299991;22;20019;-73
2023/12/26 01:13:17;;;;;;;1.33;1.00;;;10.40;99.90;;;;;;6274139;22;20015;-73
2023/12/26 01:15:43;;;;;;;1.08;0.82;;;10.40;99.90;;;;;;6299907;22;20033;-72
2023/12/26 01:18:08;;;;;;;1.48;0.93;;;10.40;99.90;;;;;;6300390;22;20098;-73
2023/12/26 01:20:34;;;;;;;0.77;0.77;;;10.30;99.90;;;;;;6302069;22;20378;-73
2023/12/26 01:23:00;;;;;;;1.52;0.77;;;10.30;99.90;;;;;;6302340;22;20355;-73
2023/12/26 01:25:26;;;;;;;2.45;0.80;;;10.30;99.90;;;;;;6302317;22;20011;-72
2023/12/26 01:27:52;;;;;;;1.85;0.80;;;10.30;99.90;;;;;;6302189;22;20054;-74
2023/12/26 01:30:19;;;;;;;3.03;0.95;;;10.30;99.90;;;;;;6302050;22;20215;-74
2023/12/26 01:32:44;;;;;;;0.70;0.70;;;10.30;99.90;;;;;;6276361;22;20019;-74
2023/12/26 01:35:10;;;;;;;1.27;1.00;;;10.30;99.90;;;;;;6301929;22;20015;-74
2023/12/26 01:37:36;;;;;;;1.73;0.80;;;10.20;99.90;;;;;;6301995;22;20008;-73
2023/12/26 01:40:03;;;;;;;1.08;0.98;;;10.20;99.90;;;;;;6276289;22;20043;-76
2023/12/26 01:42:28;;;;;;;3.42;1.00;;;10.10;99.90;;;;;;6301900;22;20084;-76
2023/12/26 01:44:54;;;;;;;1.48;1.10;;;10.10;99.90;;;;;;6276313;22;20382;-77
2023/12/26 01:47:21;;;;;;;1.83;0.80;;;10.10;99.90;;;;;;6276645;22;20418;-78
2023/12/26 01:49:46;;;;;;;1.30;1.08;;;10.10;99.90;;;;;;6302811;22;20004;-77
2023/12/26 01:52:16;;;;;;;2.13;1.10;;;10.10;99.90;;;;;;6301984;22;20168;-79
2023/12/26 01:54:42;;;;;;;1.40;0.90;;;10.10;99.90;;;;;;6302016;22;20462;-79
2023/12/26 01:57:08;;;;;;;2.85;1.15;;;10.10;99.90;;;;;;6301779;22;20015;-79
2023/12/26 01:59:36;;;;;;;3.72;1.00;;;10.00;99.90;;;;;;6301717;22;20065;-80
2023/12/26 02:02:03;;;;;;;5.38;1.55;;;10.00;99.90;;;;;;6301477;22;20058;-80
2023/12/26 02:04:29;;;;;;;2.22;1.00;;;10.10;99.90;;;;;;6301396;22;20093;-80
2023/12/26 02:06:57;;;;;;;5.72;1.70;;;10.00;99.90;;;;;;6275640;22;20532;-81
2023/12/26 02:09:24;;;;;;;2.88;1.40;;;10.00;99.90;;;;;;6301266;22;20451;-81
2023/12/26 02:11:51;;;;;;;2.92;1.05;;;10.00;99.90;;;;;;6301222;22;20042;-80
2023/12/26 02:14:17;;;;;;;5.70;1.38;;;10.00;99.90;;;;;;6303367;22;20007;-81
2023/12/26 02:16:44;;;;;;;2.97;1.23;;;10.10;99.90;;;;;;6301676;22;20411;-81
2023/12/26 02:19:10;;;;;;;9.45;1.70;;;10.00;99.90;;;;;;6303726;22;20011;-81
2023/12/26 02:21:35;;;;;;;2.40;1.45;;;10.10;99.90;;;;;;6303967;22;20011;-80
2023/12/26 02:24:01;;;;;;;1.77;1.02;;;10.00;99.90;;;;;;6302897;22;20098;-81
2023/12/26 02:26:29;;;;;;;2.95;1.25;;;10.00;99.90;;;;;;6300913;22;20083;-80
2023/12/26 02:28:56;;;;;;;4.53;2.30;;;10.00;99.90;;;;;;6301274;22;20015;-82
2023/12/26 02:31:23;;;;;;;5.03;1.65;;;10.00;99.90;;;;;;6275282;22;20011;-82
2023/12/26 02:33:49;;;;;;;3.85;1.55;;;10.00;99.90;;;;;;6301069;22;20015;-82
2023/12/26 02:36:15;;;;;;;5.82;1.50;;;10.00;99.90;;;;;;6303284;22;20018;-81
2023/12/26 02:38:41;;;;;;;3.90;1.00;;;10.00;99.90;;;;;;6301074;22;20447;-82
2023/12/26 02:41:06;;;;;;;2.67;1.27;;;10.10;99.90;;;;;;6300708;22;20019;-82
2023/12/26 02:43:35;;;;;;;10.10;2.28;;;10.10;99.90;;;;;;6275278;22;20042;-83
2023/12/26 02:46:01;;;;;;;5.32;1.55;;;10.10;99.90;;;;;;6300345;22;20105;-83
2023/12/26 02:48:26;;;;;;;8.38;2.65;;;10.00;99.90;;;;;;6301075;22;20039;-83
2023/12/26 02:50:55;;;;;;;5.47;1.60;;;10.10;99.90;;;;;;6301039;22;20027;-83
2023/12/26 02:53:21;;;;;;;7.60;1.90;;;10.10;99.90;;;;;;6275227;22;20046;-84
2023/12/26 02:55:52;;;;;;;6.10;1.55;;;10.10;99.90;;;;;;6300820;22;20034;-83
2023/12/26 02:58:19;;;;;;;7.35;1.67;;;10.10;99.90;;;;;;6303320;22;20008;-83
2023/12/26 03:00:45;;;;;;;4.32;1.33;;;10.10;99.90;;;;;;6301688;22;20022;-82
2023/12/26 03:03:11;;;;;;;6.50;1.65;;;10.10;99.90;;;;;;6303307;22;20095;-83
2023/12/26 03:05:36;;;;;;;13.38;1.92;;;10.00;99.90;;;;;;6301145;22;20392;-83
2023/12/26 03:08:02;;;;;;;7.78;1.35;;;10.10;99.90;;;;;;6300768;22;20176;-82
2023/12/26 03:10:28;;;;;;;7.82;1.83;;;10.00;99.90;;;;;;6300614;22;20390;-83
2023/12/26 03:12:54;;;;;;;6.25;2.00;;;10.10;99.90;;;;;;6300979;22;20020;-83
2023/12/26 03:15:20;;;;;;;5.95;1.58;;;10.10;99.90;;;;;;6300911;22;20164;-82
2023/12/26 03:17:45;;;;;;;4.57;1.90;;;10.00;99.90;;;;;;6300919;22;20015;-83
2023/12/26 03:20:11;;;;;;;8.57;1.73;;;10.00;99.90;;;;;;6275022;22;20090;-83
2023/12/26 03:22:39;;;;;;;9.00;2.08;;;10.10;99.90;;;;;;6274883;22;20030;-82
2023/12/26 03:25:06;;;;;;;7.70;2.08;;;10.10;99.90;;;;;;6274921;22;20132;-83
2023/12/26 03:27:32;;;;;;;5.20;1.60;;;10.00;99.90;;;;;;6300723;22;20646;-82
2023/12/26 03:29:58;;;;;;;7.93;2.47;;;10.10;99.90;;;;;;6275022;22;20090;-83
2023/12/26 03:32:23;;;;;;;9.50;2.13;;;10.00;99.90;;;;;;6300730;22;20013;-84
2023/12/26 03:34:49;;;;;;;11.40;2.13;;;10.10;99.90;;;;;;6301046;22;20015;-84
2023/12/26 03:37:15;;;;;;;10.80;2.35;;;10.10;99.90;;;;;;6300968;22;20352;-84
2023/12/26 03:39:41;;;;;;;5.47;1.98;;;10.00;99.90;;;;;;6300919;22;20022;-84
2023/12/26 03:42:07;;;;;;;10.55;1.90;;;10.10;99.90;;;;;;6274766;22;20011;-83
2023/12/26 03:44:33;;;;;;;5.90;2.10;;;10.10;99.90;;;;;;6300727;22;20029;-83
2023/12/26 03:46:59;;;;;;;6.00;2.53;;;10.10;99.90;;;;;;6275075;22;20174;-83
2023/12/26 03:49:24;;;;;;;10.57;1.63;;;10.10;99.90;;;;;;6300805;22;20421;-83
2023/12/26 03:51:50;;;;;;;6.80;1.77;;;10.10;99.90;;;;;;6302976;22;20022;-83
2023/12/26 03:54:17;;;;;;;7.20;1.83;;;10.10;99.90;;;;;;6300610;22;20079;-83
2023/12/26 03:56:43;;;;;;;3.70;1.55;;;10.10;99.90;;;;;;6302682;22;20056;-83
2023/12/26 03:59:09;;;;;;;13.38;1.65;;;10.00;99.90;;;;;;6300685;22;20384;-83
2023/12/26 04:01:35;;;;;;;11.93;2.22;;;10.00;99.90;;;;;;6300977;22;20060;-82
2023/12/26 04:04:02;;;;;;;10.07;1.77;;;10.00;99.90;;;;;;6300658;22;20355;-83
2023/12/26 04:06:28;;;;;;;7.78;1.58;;;10.00;99.90;;;;;;6300956;22;20470;-83
2023/12/26 04:08:53;;;;;;;5.60;1.60;;;9.90;99.90;;;;;;6300453;22;20019;-82
2023/12/26 04:11:19;;;;;;;8.38;2.38;;;9.90;99.90;;;;;;6300619;22;20016;-81
2023/12/26 04:13:45;;;;;;;8.25;2.30;;;9.80;99.90;;;;;;6300237;22;20741;-81
2023/12/26 04:16:11;;;;;;;11.73;1.90;;;9.90;99.90;;;;;;6300560;22;20102;-82
2023/12/26 04:18:36;;;;;;;7.75;1.70;;;9.80;99.90;;;;;;6275191;22;20512;-81
2023/12/26 04:21:02;;;;;;;9.93;1.75;;;9.70;99.90;;;;;;6300186;22;20059;-81
2023/12/26 04:23:28;;;;;;;4.20;1.67;;;9.60;99.90;;;;;;6300555;22;20454;-81
2023/12/26 04:25:54;;;;;;;7.85;1.70;;;9.60;99.90;;;;;;6300295;22;20018;-81
2023/12/26 04:28:19;;;;;;;9.10;2.00;;;9.40;99.90;;;;;;6300395;22;20070;-81
2023/12/26 04:30:47;;;;;;;6.72;2.15;;;9.50;99.90;;;;;;6300858;22;20094;-81
2023/12/26 04:33:13;;;;;;;10.25;2.63;;;9.40;99.90;;;;;;6300743;22;20026;-81
2023/12/26 04:35:38;;;;;;;10.18;1.80;;;9.30;99.90;;;;;;6300186;22;20019;-82
2023/12/26 04:38:04;;;;;;;11.75;2.00;;;9.30;99.90;;;;;;6274528;22;20011;-82
2023/12/26 04:40:30;;;;;;;9.50;2.10;;;9.20;99.90;;;;;;6302092;22;20113;-81
2023/12/26 04:43:00;;;;;;;9.45;2.20;;;9.20;99.90;;;;;;6299921;22;20404;-80
2023/12/26 04:45:26;;;;;;;8.65;1.92;;;9.20;99.90;;;;;;6299815;22;20026;-79
2023/12/26 04:47:51;;;;;;;6.90;1.95;;;9.20;99.90;;;;;;6300370;22;20388;-80
2023/12/26 04:50:17;;;;;;;8.90;2.15;;;9.10;99.90;;;;;;6300189;22;20011;-79
2023/12/26 04:52:43;;;;;;;9.73;2.17;;;9.10;99.90;;;;;;6299688;22;20065;-79
2023/12/26 04:55:09;;;;;;;11.68;2.03;;;9.10;99.90;;;;;;6300221;22;20046;-80
2023/12/26 04:57:35;;;;;;;10.68;2.25;;;9.10;99.90;;;;;;6299954;22;20011;-80
2023/12/26 05:00:01;;;;;;;7.32;1.75;;;9.10;99.90;;;;;;6301878;22;20027;-79
2023/12/26 05:02:26;;;;;;;9.38;2.50;;;9.00;99.90;;;;;;6302057;22;20693;-79
2023/12/26 05:04:52;;;;;;;8.02;2.20;;;9.10;99.90;;;;;;6301810;22;20098;-80
2023/12/26 05:07:18;;;;;;;10.75;2.15;;;9.00;99.90;;;;;;6300499;22;20426;-80
2023/12/26 05:09:43;;;;;;;8.73;1.80;;;9.00;99.90;;;;;;6299816;22;20091;-80
2023/12/26 05:12:09;;;;;;;8.25;1.67;;;9.00;99.90;;;;;;6273783;22;20019;-80
2023/12/26 05:14:35;;;;;;;9.63;1.55;;;9.00;99.90;;;;;;6299920;22;20687;-80
2023/12/26 05:17:01;;;;;;;13.00;2.80;;;8.90;99.90;;;;;;6273873;22;20019;-80
2023/12/26 05:19:26;;;;;;;8.15;1.98;;;9.00;99.90;;;;;;6299419;22;20348;-79
2023/12/26 05:21:52;;;;;;;10.82;2.30;;;9.00;99.90;;;;;;6299439;22;20098;-79
2023/12/26 05:24:18;;;;;;;13.85;2.17;;;8.90;99.90;;;;;;6299517;22;20026;-79
2023/12/26 05:26:44;;;;;;;13.55;2.10;;;8.90;99.90;;;;;;6273775;22;20034;-78
2023/12/26 05:29:10;;;;;;;8.25;2.40;;;8.90;99.90;;;;;;6299806;22;20016;-79
2023/12/26 05:31:38;;;;;;;7.32;2.00;;;8.90;99.90;;;;;;6299780;22;20392;-79
2023/12/26 05:34:05;;;;;;;6.68;2.25;;;9.00;99.90;;;;;;6299413;22;20386;-80
2023/12/26 05:36:31;;;;;;;9.63;2.13;;;8.80;99.90;;;;;;6299847;22;20026;-79
2023/12/26 05:38:58;;;;;;;6.80;1.83;;;8.90;99.90;;;;;;6300078;22;20019;-79
2023/12/26 05:41:25;;;;;;;10.52;2.00;;;8.90;99.90;;;;;;6300057;22;20019;-78
2023/12/26 05:43:51;;;;;;;8.10;2.45;;;8.90;99.90;;;;;;6300206;22;20030;-80
2023/12/26 05:46:18;;;;;;;9.23;1.92;;;8.90;99.90;;;;;;6299646;22;20023;-80
2023/12/26 05:48:44;;;;;;;6.60;1.75;;;9.00;99.90;;;;;;6299735;22;20088;-81
2023/12/26 05:51:10;;;;;;;8.65;1.95;;;8.90;99.90;;;;;;6301882;22;20431;-80
2023/12/26 05:53:36;;;;;;;9.43;1.65;;;8.90;99.90;;;;;;6300254;22;20077;-80
2023/12/26 05:56:02;;;;;;;5.60;2.25;;;8.90;99.90;;;;;;6274492;22;20178;-80
2023/12/26 05:58:28;;;;;;;4.70;2.20;;;9.00;99.90;;;;;;6299994;22;20023;-80
2023/12/26 06:00:53;;;;;;;11.07;2.60;;;9.00;99.90;;;;;;6299694;22;20082;-80
2023/12/26 06:03:19;;;;;;;5.88;1.73;;;9.00;99.90;;;;;;6273937;22;20064;-81
2023/12/26 06:05:46;;;;;;;7.07;1.88;;;9.00;99.90;;;;;;6301179;22;20022;-79
2023/12/26 06:08:17;;;;;;;9.20;1.83;;;9.00;99.90;;;;;;6276524;22;20007;-80
2023/12/26 06:11:00;;;;;;;7.85;2.25;;;9.10;99.90;;;;;;6282517;22;20106;-80
2023/12/26 06:13:26;;;;;;;8.55;2.08;;;9.10;99.90;;;;;;6275873;22;20092;-79
2023/12/26 06:15:52;;;;;;;8.13;2.00;;;9.10;99.90;;;;;;6301400;22;20015;-80
2023/12/26 06:18:17;;;;;;;10.77;2.10;;;9.10;99.90;;;;;;6275980;22;20072;-80
2023/12/26 06:20:43;;;;;;;8.57;2.33;;;9.10;99.90;;;;;;6301273;22;20019;-80
2023/12/26 06:23:09;;;;;;;8.80;1.98;;;9.20;99.90;;;;;;6275934;22;20015;-80
2023/12/26 06:25:35;;;;;;;7.00;1.77;;;9.20;99.90;;;;;;6301534;22;20016;-80
2023/12/26 06:28:00;;;;;;;10.88;2.30;;;9.20;99.90;;;;;;6275747;22;20339;-80
2023/12/26 06:30:26;;;;;;;8.77;2.03;;;9.20;99.90;;;;;;6275341;22;20454;-80
2023/12/26 06:32:53;;;;;;;12.90;2.03;;;9.20;99.90;;;;;;6275051;22;20035;-80
2023/12/26 06:35:19;;;;;;;8.82;2.22;;;9.20;99.90;;;;;;6300943;22;20056;-80
2023/12/26 06:37:45;;;;;;;12.50;2.53;;;9.20;99.90;;;;;;6300815;22;20450;-80
2023/12/26 06:40:11;;;;;;;10.40;1.75;;;9.20;99.90;;;;;;6300947;22;20090;-81
2023/12/26 06:42:36;;;;;;;10.25;2.20;;;9.10;99.90;;;;;;6275081;22;20034;-80
2023/12/26 06:45:02;;;;;;;9.70;2.72;;;9.20;99.90;;;;;;6274914;22;20023;-79
2023/12/26 06:47:28;;;;;;;11.00;3.75;;;9.20;99.90;;;;;;6300875;22;20090;-80
2023/12/26 06:49:53;;;;;;;12.13;2.47;;;9.20;99.90;;;;;;6301018;22;20344;-80
2023/12/26 06:52:19;;;;;;;7.57;2.28;;;9.20;99.90;;;;;;6301019;22;20050;-80
2023/12/26 06:54:45;;;;;;;10.85;2.40;;;9.20;99.90;;;;;;6300834;22;20023;-80
2023/12/26 06:57:17;;;;;;;10.80;2.60;;;9.20;99.90;;;;;;6300386;22;20019;-80
2023/12/26 06:59:48;;;;;;;9.00;2.25;;;9.20;99.90;;;;;;6301244;22;20075;-79
2023/12/26 07:02:16;;;;;;;7.80;2.45;;;9.20;99.90;;;;;;6301032;22;20018;-81
2023/12/26 07:04:45;;;;;;;10.65;1.85;;;9.20;99.90;;;;;;6301242;22;20031;-81
2023/12/26 07:07:11;;;;;;;16.77;4.57;;;9.20;99.90;;;;;;6303375;22;20008;-81
2023/12/26 07:09:38;;;;;;;10.00;3.03;;;9.20;99.90;;;;;;6301563;22;20022;-81
2023/12/26 07:12:04;;;;;;;10.55;2.50;;;9.20;99.90;;;;;;6303038;22;20019;-81
2023/12/26 07:14:30;;;;;;;9.77;2.70;;;9.20;99.90;;;;;;6303558;22;20327;-81
2023/12/26 07:16:56;;;;;;;10.00;2.47;;;9.20;99.90;;;;;;6302861;22;20015;-81
2023/12/26 07:19:22;;;;;;;8.98;2.10;;;9.20;99.90;;;;;;6301474;22;20065;-78
2023/12/26 07:21:48;;;;;;;8.45;2.65;;;9.20;99.90;;;;;;6303838;22;20019;-83
2023/12/26 07:24:14;;;;;;;14.45;3.00;;;9.20;99.90;;;;;;6301646;22;20030;-83
2023/12/26 07:26:40;;;;;;;11.25;2.60;;;9.20;99.90;;;;;;6302422;22;20023;-80
2023/12/26 07:29:06;;;;;;;12.77;2.63;;;9.10;99.90;;;;;;6307663;22;20023;-81
2023/12/26 07:31:32;;;;;;;9.48;2.25;;;9.20;99.90;;;;;;6307639;22;20019;-81
2023/12/26 07:34:00;;;;;;;14.95;3.42;;;9.20;99.90;;;;;;6308079;22;20072;-82
2023/12/26 07:36:26;;;;;;;10.35;3.15;;;9.20;99.90;;;;;;6307938;22;20066;-82
2023/12/26 07:38:52;;;;;;;8.15;2.03;;;9.20;99.90;;;;;;6308692;22;20012;-83
2023/12/26 07:41:17;;;;;;;12.73;2.90;;;9.20;99.90;;;;;;6307994;22;20019;-81
2023/12/26 07:43:44;;;;;;;14.80;3.78;;;9.20;99.90;;;;;;6307508;22;20090;-82
2023/12/26 07:46:10;;;;;;;13.60;2.22;;;9.20;99.90;;;;;;6307483;22;20107;-82
2023/12/26 07:48:36;;;;;;;11.05;2.90;;;9.10;99.90;;;;;;6307283;22;20090;-81
2023/12/26 07:51:02;;;;;;;10.75;2.53;;;9.10;99.90;;;;;;6307247;22;20011;-81
2023/12/26 07:53:27;;;;;;;13.57;2.70;;;9.10;99.90;;;;;;6279320;22;20011;-83
2023/12/26 07:55:53;;;;;;;14.38;2.42;;;9.10;99.90;;;;;;6301112;22;20094;-82
2023/12/26 07:58:19;;;;;;;12.65;3.03;;;9.00;99.90;;;;;;6274996;22;20023;-82
2023/12/26 08:00:45;;;;;;;11.77;2.97;;;9.00;99.90;;;;;;6275222;22;20051;-81
2023/12/26 08:03:15;;;;;;;11.13;2.47;;;9.00;99.90;;;;;;6300986;22;20019;-83
2023/12/26 08:05:42;;;;;;;15.50;2.53;;;9.00;99.90;;;;;;6300961;22;20019;-83
2023/12/26 08:08:11;;;;;;;11.07;2.50;;;9.00;99.90;;;;;;6300542;22;20039;-83
2023/12/26 08:10:37;;;;;;;9.63;2.33;;;9.00;99.90;;;;;;6300356;22;20086;-82
2023/12/26 08:13:04;;;;;;;9.75;3.38;;;9.00;99.90;;;;;;6300875;22;20023;-83
2023/12/26 08:15:30;;;;;;;14.15;2.75;;;9.00;99.90;;;;;;6274492;22;20052;-82
2023/12/26 08:17:56;;;;;;;11.50;2.33;;;9.00;99.90;;;;;;6300648;22;20106;-82
2023/12/26 08:20:22;;;;;;;17.58;2.83;;;9.10;99.90;;;;;;6300946;22;20106;-84
2023/12/26 08:22:48;;;;;;;15.73;2.80;;;9.00;99.90;;;;;;6301165;22;20045;-84
2023/12/26 08:25:14;;;;;;;12.77;2.60;;;9.10;99.90;;;;;;6300643;22;20064;-84
2023/12/26 08:27:42;;;;;;;10.23;3.22;;;9.10;99.90;;;;;;6274620;22;20325;-84
2023/12/26 08:30:11;;;;;;;10.60;2.90;;;9.10;99.90;;;;;;6303411;22;20011;-84
2023/12/26 08:32:37;;;;;;;18.40;2.83;;;9.10;99.90;;;;;;6274749;22;20377;-84
2023/12/26 08:35:03;;;;;;;14.50;3.38;;;9.00;99.90;;;;;;6300914;22;20145;-85
2023/12/26 08:37:29;;;;;;;11.98;3.40;;;9.10;99.90;;;;;;6301088;22;20014;-86
2023/12/26 08:39:55;;;;;;;12.20;2.95;;;9.00;99.90;;;;;;6274948;22;20106;-85
2023/12/26 08:42:20;;;;;;;12.80;2.45;;;9.10;99.90;;;;;;6274802;22;20022;-85
2023/12/26 08:44:46;;;;;;;10.48;3.40;;;9.00;99.90;;;;;;6300441;22;20030;-83
2023/12/26 08:47:12;;;;;;;25.08;3.00;;;9.00;99.90;;;;;;6301301;22;20027;-84
2023/12/26 08:49:37;;;;;;;13.13;3.03;;;9.00;99.90;;;;;;6300697;22;20097;-84
2023/12/26 08:52:03;;;;;;;10.20;3.05;;;9.10;99.90;;;;;;6274898;22;20015;-84
2023/12/26 08:54:29;;;;;;;11.90;2.45;;;9.10;99.90;;;;;;6275512;22;20064;-85
2023/12/26 08:56:55;;;;;;;13.15;2.80;;;9.10;99.90;;;;;;6300847;22;20400;-87
2023/12/26 08:59:21;;;;;;;15.00;3.72;;;9.00;99.90;;;;;;6275346;22;20015;-85
2023/12/26 09:01:47;;;;;;;15.77;4.28;;;9.10;99.90;;;;;;6275381;22;20014;-86
2023/12/26 09:04:12;;;;;;;19.30;5.43;;;9.10;99.90;;;;;;6275250;22;20038;-87
2023/12/26 09:06:38;;;;;;;18.17;4.97;;;9.10;99.90;;;;;;6275136;22;20015;-86
2023/12/26 09:09:04;;;;;;;23.83;7.75;;;9.10;99.90;;;;;;6274992;22;20509;-82
2023/12/26 09:11:30;;;;;;;18.38;5.65;;;9.10;99.90;;;;;;6299839;22;20026;-76
2023/12/26 09:13:55;;;;;;;20.52;6.95;;;9.10;99.90;;;;;;6300864;22;20096;-86
2023/12/26 09:16:21;;;;;;;18.10;5.82;;;9.10;99.90;;;;;;6275719;22;20019;-86
2023/12/26 09:18:47;;;;;;;19.67;5.28;;;9.10;99.90;;;;;;6275569;22;20046;-86
2023/12/26 09:21:13;;;;;;;17.58;4.35;;;9.10;99.90;;;;;;6300744;22;20312;-86
2023/12/26 09:23:39;;;;;;;18.52;4.60;;;9.10;99.90;;;;;;6275564;22;20022;-87
2023/12/26 09:26:05;;;;;;;16.25;4.03;;;9.10;99.90;;;;;;6300361;22;20079;-86
2023/12/26 09:28:31;;;;;;;15.80;3.97;;;9.20;99.90;;;;;;6275223;22;20019;-85
2023/12/26 09:30:58;;;;;;;17.13;4.22;;;9.10;99.90;;;;;;6300730;22;20015;-86
2023/12/26 09:33:24;;;;;;;14.25;3.83;;;9.10;99.90;;;;;;6301062;22;20011;-86
2023/12/26 09:35:50;;;;;;;12.38;2.80;;;9.10;99.90;;;;;;6301652;22;20015;-87
2023/12/26 09:38:16;;;;;;;13.30;2.20;;;9.10;99.90;;;;;;6301111;22;20019;-87
2023/12/26 09:40:42;;;;;;;19.50;4.68;;;9.10;99.90;;;;;;6277028;22;20164;-84
2023/12/26 09:43:08;;;;;;;14.38;2.85;;;9.10;99.90;;;;;;6303515;22;20343;-85
2023/12/26 09:45:34;;;;;;;13.95;2.92;;;9.10;99.90;;;;;;6302589;22;20015;-85
2023/12/26 09:48:00;;;;;;;10.15;2.60;;;9.10;99.90;;;;;;6303566;22;20347;-84
2023/12/26 09:50:26;;;;;;;13.90;2.72;;;9.10;99.90;;;;;;6303673;22;20112;-85
2023/12/26 09:52:58;;;;;;;14.15;2.30;;;9.20;99.90;;;;;;6277117;22;20015;-85
2023/12/26 09:55:26;;;;;;;12.88;3.17;;;9.20;99.90;;;;;;6277611;22;20042;-84
2023/12/26 09:57:52;;;;;;;15.57;2.75;;;9.20;99.90;;;;;;6303301;22;20030;-85
2023/12/26 10:00:18;;;;;;;14.82;3.80;;;9.20;99.90;;;;;;6277830;22;20094;-86
2023/12/26 10:02:45;;;;;;;19.65;3.08;;;9.20;99.90;;;;;;6277977;22;20405;-86
2023/12/26 10:05:11;;;;;;;12.23;3.83;;;9.20;99.90;;;;;;6303434;22;20407;-86
2023/12/26 10:07:37;;;;;;;10.65;2.70;;;9.20;99.90;;;;;;6277935;22;20022;-86
2023/12/26 10:10:04;;;;;;;10.18;2.47;;;9.20;99.90;;;;;;6303274;22;20366;-85
2023/12/26 10:12:30;;;;;;;15.70;3.40;;;9.10;99.90;;;;;;6303412;22;20078;-86
2023/12/26 10:15:03;;;;;;;19.77;3.75;;;9.10;99.90;;;;;;6303481;22;20466;-85
2023/12/26 10:17:30;;;;;;;15.10;3.28;;;9.10;99.90;;;;;;6302835;22;20007;-80
2023/12/26 10:19:59;;;;;;;25.63;4.05;;;9.10;99.90;;;;;;6276561;22;20433;-75
2023/12/26 10:22:26;;;;;;;14.63;3.35;;;9.20;99.90;;;;;;6303671;22;20038;-85
2023/12/26 10:25:00;;;;;;;14.60;4.13;;;9.20;99.90;;;;;;6252089;22;20031;-85
2023/12/26 10:27:31;;;;;;;11.15;3.08;;;9.20;99.90;;;;;;6304096;22;20352;-85
2023/12/26 10:30:00;;;;;;;18.25;3.70;;;9.20;99.90;;;;;;6303070;22;20030;-85
2023/12/26 10:32:30;;;;;;;18.42;3.25;;;9.30;99.90;;;;;;6304146;22;20381;-84
2023/12/26 10:35:19;;;;;;;18.92;3.50;;;9.30;99.90;;;;;;6277715;22;20015;-85
2023/12/26 10:37:49;;;;;;;14.98;3.33;;;9.30;99.90;;;;;;6220087;22;20460;-85
2023/12/26 10:40:40;;;;;;;19.83;3.35;;;9.30;99.90;;;;;;6262742;22;20018;-84
2023/12/26 10:43:06;;;;;;;24.90;7.65;;;9.30;99.90;;;;;;6215355;23;20020;-85
2023/12/26 10:45:35;;;;;;;18.70;4.57;;;9.30;99.90;;;;;;6163622;23;20023;-84
2023/12/26 10:48:38;;;;;;;15.02;3.25;;;9.30;99.90;;;;;;6240913;23;20420;-85
2023/12/26 10:51:10;;;;;;;14.23;2.97;;;9.30;99.90;;;;;;6157968;23;20013;-85
2023/12/26 10:54:17;;;;;;;20.73;3.55;;;9.30;99.90;;;;;;6209678;23;20017;-84
2023/12/26 10:56:44;;;;;;;14.10;3.40;;;9.40;99.90;;;;;;6159746;23;20464;-82
2023/12/26 10:59:10;;;;;;;21.27;2.70;;;9.40;99.90;;;;;;6183194;23;20331;-78
2023/12/26 13:53:19;;;;;;;10.02;2.53;;;9.50;99.90;;;;;;6300974;22;20023;-84
2023/12/26 13:55:45;;;;;;;11.05;2.70;;;9.40;99.90;;;;;;6301442;22;20433;-86
2023/12/26 13:58:10;;;;;;;10.23;2.28;;;9.50;99.90;;;;;;6302443;22;20568;-88
2023/12/26 14:00:36;;;;;;;9.57;2.38;;;9.50;99.90;;;;;;6303806;22;20355;-92
2023/12/26 14:03:02;;;;;;;13.15;2.75;;;9.50;99.90;;;;;;6303087;22;20114;-89
2023/12/26 14:05:28;;;;;;;16.77;4.40;;;9.40;99.90;;;;;;6303756;22;20051;-88
2023/12/26 14:07:57;;;;;;;10.43;3.55;;;9.40;99.90;;;;;;6303037;22;20034;-87
2023/12/26 14:10:23;;;;;;;12.93;3.03;;;9.30;99.90;;;;;;6302486;22;20015;-90
2023/12/26 14:12:49;;;;;;;14.75;5.32;;;9.30;99.90;;;;;;6302700;22;20015;-83
2023/12/26 14:15:14;;;;;;;20.60;5.40;;;9.40;99.90;;;;;;6305463;22;20077;-95
2023/12/26 14:17:40;;;;;;;16.25;6.50;;;9.30;99.90;;;;;;6304947;22;20008;-89
2023/12/26 14:20:06;;;;;;;37.03;17.40;;;9.30;99.90;;;;;;6305105;22;20021;-93
2023/12/26 14:22:31;;;;;;;13.50;5.10;;;9.30;99.90;;;;;;6305015;22;20047;-75
2023/12/26 14:24:57;;;;;;;14.68;5.70;;;9.30;99.90;;;;;;6300722;22;20451;-77
2023/12/26 14:27:23;;;;;;;23.05;7.95;;;9.20;99.90;;;;;;6302955;22;20017;-78
2023/12/26 14:29:48;;;;;;;11.73;3.17;;;9.30;99.90;;;;;;6304738;22;20099;-77
2023/12/26 14:32:16;;;;;;;11.23;3.05;;;9.30;99.90;;;;;;6302192;22;20506;-77
2023/12/26 14:34:41;;;;;;;16.70;4.15;;;9.30;99.90;;;;;;6302351;22;20343;-77
2023/12/26 14:37:08;;;;;;;12.18;4.93;;;9.20;99.90;;;;;;6302535;22;20114;-78
2023/12/26 14:39:33;;;;;;;10.68;4.07;;;9.20;99.90;;;;;;6302225;22;20019;-75
2023/12/26 14:41:59;;;;;;;17.42;8.68;;;9.20;99.90;;;;;;6302417;22;20487;-77
2023/12/26 14:44:24;;;;;;;7.00;4.18;;;9.10;99.90;;;;;;6302138;22;20015;-77
2023/12/26 14:46:50;;;;;;;7.80;4.47;;;9.20;99.90;;;;;;6301495;22;20065;-78
2023/12/26 14:49:16;;;;;;;12.55;4.10;;;9.20;99.90;;;;;;6302201;22;20124;-78
2023/12/26 14:51:42;;;;;;;19.00;7.97;;;9.20;99.90;;;;;;6302290;22;20565;-78
2023/12/26 14:54:07;;;;;;;15.35;8.98;;;9.00;99.90;;;;;;6302050;22;20088;-79
2023/12/26 14:56:33;;;;;;;15.85;6.90;;;9.00;99.90;;;;;;6276216;22;20440;-78
2023/12/26 14:58:58;;;;;;;10.20;5.13;;;9.00;99.90;;;;;;6275836;22;20451;-78
2023/12/26 15:01:26;;;;;;;17.00;8.48;;;9.00;99.90;;;;;;6301503;22;20007;-82
2023/12/26 15:03:52;;;;;;;7.88;4.43;;;8.90;99.90;;;;;;6301769;22;20023;-76
2023/12/26 15:06:18;;;;;;;12.77;5.20;;;8.90;99.90;;;;;;6301568;22;20427;-77
2023/12/26 15:08:43;;;;;;;15.50;7.10;;;8.90;99.90;;;;;;6302136;22;20011;-78
2023/12/26 15:11:19;;;;;;;33.42;14.38;;;8.80;99.90;;;;;;6301943;22;20015;-77
2023/12/26 15:13:45;;;;;;;10.40;5.57;;;8.80;99.90;;;;;;6301970;22;20068;-77
2023/12/26 15:16:16;;;;;;;10.02;4.93;;;8.70;99.90;;;;;;6301763;22;20047;-77
2023/12/26 15:18:42;;;;;;;8.52;4.47;;;8.70;99.90;;;;;;6301829;22;20470;-77
2023/12/26 15:21:07;;;;;;;9.13;4.43;;;8.80;99.90;;;;;;6303691;22;20022;-77
2023/12/26 15:23:33;;;;;;;11.70;3.70;;;8.70;99.90;;;;;;6303642;22;20011;-77
2023/12/26 15:25:59;;;;;;;6.15;1.60;;;8.70;99.90;;;;;;6301725;22;20095;-77
2023/12/26 15:28:24;;;;;;;6.32;1.75;;;8.60;99.90;;;;;;6301894;22;20011;-78
2023/12/26 15:30:50;;;;;;;3.63;1.45;;;8.70;99.90;;;;;;6302006;22;20090;-77
2023/12/26 15:33:16;;;;;;;7.15;1.67;;;8.70;99.90;;;;;;6301883;22;20466;-77
2023/12/26 15:35:48;;;;;;;4.57;1.33;;;8.70;99.90;;;;;;6301734;22;20023;-77